.
WxDataArchive / Data Records for 2012-10-04
2012-10-03 October 2012 2012-10-05

Data Records for Thursday, 04 October 2012

Time	Temp	Chill	HIndex	Humid	Dewpt	 Wind 	HiWind	WindDir	Rain 	Barom 
-----	----	-----	------	-----	-----	------	------	-------	-----	----- 
00:00	54.4	54.4	54.4	88	50.9	0	0	---	0.00	30.065 
00:05	54.5	54.5	54.5	88	51.0	0	0	---	0.00	30.065 
00:10	54.7	54.7	54.7	88	51.2	0	0	---	0.00	30.065 
00:15	54.8	54.8	54.8	88	51.3	0	0	---	0.00	30.067 
00:20	55.0	55.0	55.0	88	51.5	0	0	---	0.00	30.067 
00:25	55.1	55.1	55.1	88	51.6	0	0	---	0.00	30.067 
00:30	55.3	55.3	55.3	88	51.8	0	0	---	0.00	30.068 
00:35	55.4	55.4	55.4	87	51.6	0	0	---	0.00	30.068 
00:40	55.6	55.6	55.6	86	51.5	0	0	---	0.00	30.068 
00:45	55.7	55.7	55.7	86	51.6	0	0	---	0.00	30.069 
00:50	55.9	55.9	55.9	85	51.5	0	0	---	0.00	30.069 
00:55	56.2	56.2	56.2	84	51.4	0	0	---	0.00	30.069 
01:00	56.3	56.3	56.3	84	51.5	0	0	---	0.00	30.068 
01:05	56.3	56.3	56.3	83	51.2	0	2	270	0.00	30.068 
01:10	56.6	56.6	56.6	83	51.5	0	2	---	0.00	30.068 
01:15	56.7	56.7	56.7	82	51.3	0	2	270	0.00	30.066 
01:20	56.9	56.9	56.9	81	51.1	0	0	---	0.00	30.066 
01:25	56.9	56.9	56.9	81	51.1	0	0	---	0.00	30.066 
01:30	56.9	56.9	56.9	80	50.8	0	1	270	0.00	30.066 
01:35	56.9	56.9	56.9	80	50.8	0	0	---	0.00	30.066 
01:40	57.0	57.0	57.0	80	50.9	0	1	270	0.00	30.066 
01:45	57.0	57.0	57.0	80	50.9	0	0	---	0.00	30.069 
01:50	57.0	57.0	57.0	80	50.9	0	1	270	0.00	30.069 
01:55	57.0	57.0	57.0	80	50.9	0	1	270	0.00	30.069 
02:00	57.0	57.0	57.0	79	50.5	0	2	270	0.00	30.070 
02:05	57.2	57.2	57.2	79	50.7	0	1	270	0.00	30.070 
02:10	57.2	57.2	57.2	79	50.7	0	3	248	0.00	30.070 
02:15	57.2	57.2	57.2	78	50.4	0	1	248	0.00	30.070 
02:20	57.2	57.2	57.2	78	50.4	0	0	---	0.00	30.070 
02:25	57.2	57.2	57.2	78	50.4	0	0	---	0.00	30.070 
02:30	57.0	57.0	57.0	78	50.2	0	0	---	0.00	30.072 
02:35	56.9	56.9	56.9	79	50.5	0	0	---	0.00	30.072 
02:40	56.9	56.9	56.9	79	50.5	0	0	---	0.00	30.072 
02:45	56.7	56.7	56.7	79	50.3	0	0	---	0.00	30.069 
02:50	56.6	56.6	56.6	79	50.2	0	0	---	0.00	30.069 
02:55	56.3	56.3	56.3	80	50.2	0	0	---	0.00	30.069 
03:00	56.2	56.2	56.2	80	50.1	0	0	---	0.00	30.071 
03:05	56.0	56.0	56.0	80	49.9	0	0	---	0.00	30.071 
03:10	55.9	55.9	55.9	81	50.2	0	1	248	0.00	30.071 
03:15	55.9	55.9	55.9	81	50.2	0	0	---	0.00	30.068 
03:20	55.7	55.7	55.7	81	50.0	0	0	---	0.00	30.068 
03:25	55.6	55.6	55.6	81	49.9	0	0	---	0.00	30.068 
03:30	55.6	55.6	55.6	81	49.9	0	0	---	0.00	30.068 
03:35	55.6	55.6	55.6	82	50.2	0	0	---	0.00	30.068 
03:40	55.4	55.4	55.4	82	50.0	0	1	248	0.00	30.068 
03:45	55.6	55.6	55.6	82	50.2	0	1	248	0.00	30.066 
03:50	55.6	55.6	55.6	82	50.2	0	1	248	0.00	30.066 
03:55	55.6	55.6	55.6	82	50.2	0	2	248	0.00	30.066 
04:00	55.7	55.7	55.7	82	50.3	0	2	248	0.00	30.067 
04:05	55.7	55.7	55.7	81	50.0	0	2	248	0.00	30.067 
04:10	55.7	55.7	55.7	81	50.0	0	1	248	0.00	30.067 
04:15	55.7	55.7	55.7	81	50.0	0	1	248	0.00	30.067 
04:20	55.9	55.9	55.9	81	50.2	0	2	248	0.00	30.067 
04:25	55.9	55.9	55.9	81	50.2	0	1	248	0.00	30.067 
04:30	55.7	55.7	55.7	81	50.0	0	1	248	0.00	30.067 
04:35	55.7	55.7	55.7	81	50.0	0	2	248	0.00	30.067 
04:40	55.7	55.7	55.7	81	50.0	0	2	248	0.00	30.067 
04:45	55.6	55.6	55.6	81	49.9	0	3	248	0.00	30.068 
04:50	55.6	55.6	55.6	81	49.9	0	1	248	0.00	30.068 
04:55	55.6	55.6	55.6	81	49.9	0	1	248	0.00	30.068 
05:00	55.4	55.4	55.4	82	50.0	0	1	248	0.00	30.069 
05:05	55.3	55.3	55.3	82	49.9	0	2	248	0.00	30.069 
05:10	55.3	55.3	55.3	82	49.9	0	1	248	0.00	30.069 
05:15	55.3	55.3	55.3	82	49.9	0	3	248	0.00	30.070 
05:20	55.3	55.3	55.3	82	49.9	0	1	248	0.00	30.070 
05:25	55.3	55.3	55.3	82	49.9	0	1	248	0.00	30.070 
05:30	55.3	55.3	55.3	82	49.9	0	1	248	0.00	30.079 
05:35	55.1	55.1	55.1	82	49.7	0	0	---	0.00	30.079 
05:40	55.0	55.0	55.0	82	49.6	0	0	---	0.00	30.079 
05:45	54.8	54.8	54.8	83	49.7	0	2	248	0.00	30.082 
05:50	54.8	54.8	54.8	83	49.7	0	1	248	0.00	30.082 
05:55	54.7	54.7	54.7	83	49.6	0	0	---	0.00	30.082 
06:00	54.7	54.7	54.7	83	49.6	0	0	---	0.00	30.082 
06:05	54.5	54.5	54.5	84	49.8	0	1	248	0.00	30.082 
06:10	54.5	54.5	54.5	84	49.8	0	1	248	0.00	30.082 
06:15	54.5	54.5	54.5	84	49.8	0	1	248	0.00	30.084 
06:20	54.5	54.5	54.5	84	49.8	0	2	248	0.00	30.084 
06:25	54.5	54.5	54.5	84	49.8	0	0	---	0.00	30.084 
06:30	54.4	54.4	54.4	84	49.7	0	0	---	0.00	30.085 
06:35	54.4	54.4	54.4	84	49.7	0	0	---	0.00	30.085 
06:40	54.4	54.4	54.4	85	50.0	0	1	248	0.00	30.085 
06:45	54.2	54.2	54.2	85	49.8	0	0	---	0.00	30.086 
06:50	54.2	54.2	54.2	85	49.8	0	1	248	0.00	30.086 
06:55	54.4	54.4	54.4	85	50.0	0	1	248	0.00	30.086 
07:00	54.4	54.4	54.4	85	50.0	0	0	---	0.00	30.090 
07:05	54.4	54.4	54.4	85	50.0	0	1	248	0.00	30.090 
07:10	54.4	54.4	54.4	85	50.0	0	1	248	0.00	30.090 
07:15	54.4	54.4	54.4	85	50.0	0	1	248	0.00	30.095 
07:20	54.2	54.2	54.2	86	50.1	0	1	248	0.00	30.095 
07:25	54.2	54.2	54.2	85	49.8	0	1	248	0.00	30.095 
07:30	54.2	54.2	54.2	86	50.1	0	1	248	0.00	30.096 
07:35	54.1	54.1	54.1	86	50.0	0	1	248	0.00	30.096 
07:40	54.1	54.1	54.1	86	50.0	0	1	248	0.00	30.096 
07:45	53.9	53.9	53.9	86	49.8	0	1	248	0.00	30.101 
07:50	53.9	53.9	53.9	86	49.8	0	0	---	0.00	30.101 
07:55	53.9	53.9	53.9	86	49.8	0	1	248	0.00	30.101 
08:00	53.8	53.8	53.8	87	50.0	0	1	248	0.00	30.100 
08:05	53.8	53.8	53.8	87	50.0	0	0	---	0.00	30.100 
08:10	53.8	53.8	53.8	87	50.0	0	0	---	0.00	30.100 
08:15	53.8	53.8	53.8	87	50.0	0	0	---	0.00	30.103 
08:20	53.8	53.8	53.8	87	50.0	0	0	---	0.00	30.103 
08:25	53.9	53.9	53.9	88	50.4	0	0	---	0.00	30.103 
08:30	54.1	54.1	54.1	88	50.6	0	0	---	0.00	30.106 
08:35	54.2	54.2	54.2	88	50.7	0	0	---	0.00	30.106 
08:40	54.5	54.5	54.5	88	51.0	0	2	248	0.00	30.106 
08:45	54.8	54.8	54.8	88	51.3	0	1	248	0.00	30.113 
08:50	55.3	55.3	55.3	87	51.5	0	2	248	0.00	30.113 
08:55	55.7	55.7	55.7	87	51.9	0	2	248	0.00	30.113 
09:00	56.0	56.0	56.0	86	51.9	0	0	---	0.00	30.104 
09:05	56.2	56.2	56.2	85	51.7	0	2	248	0.00	30.104 
09:10	56.3	56.3	56.3	84	51.5	0	1	248	0.00	30.104 
09:15	56.3	56.3	56.3	84	51.5	0	2	248	0.00	30.107 
09:20	56.5	56.5	56.5	84	51.7	0	1	248	0.00	30.107 
09:25	56.6	56.6	56.6	84	51.8	0	1	248	0.00	30.107 
09:30	56.7	56.7	56.7	84	51.9	0	1	248	0.00	30.104 
09:35	56.9	56.9	56.9	83	51.8	0	2	248	0.00	30.104 
09:40	57.0	57.0	57.0	83	51.9	0	2	248	0.00	30.104 
09:45	57.2	57.2	57.2	83	52.1	0	1	248	0.00	30.112 
09:50	57.5	57.5	57.5	82	52.0	0	2	270	0.00	30.112 
09:55	57.8	57.8	57.8	82	52.3	0	2	270	0.00	30.112 
10:00	58.0	58.0	58.0	81	52.2	0	1	270	0.00	30.110 
10:05	58.3	58.3	58.3	81	52.5	0	2	270	0.00	30.110 
10:10	58.3	58.3	58.3	81	52.5	0	2	270	0.00	30.110 
10:15	58.4	58.4	58.4	81	52.6	0	1	270	0.00	30.117 
10:20	58.9	58.9	58.9	81	53.1	0	2	270	0.00	30.117 
10:25	59.3	59.3	59.3	81	53.5	0	2	248	0.00	30.117 
10:30	59.8	59.8	59.8	80	53.6	0	1	248	0.00	30.119 
10:35	60.1	60.1	60.1	79	53.6	0	3	248	0.00	30.119 
10:40	60.5	60.5	60.5	78	53.6	0	2	248	0.00	30.119 
10:45	61.0	61.0	61.0	78	54.1	0	2	248	0.00	30.121 
10:50	61.2	61.2	61.2	77	53.9	0	2	248	0.00	30.121 
10:55	61.5	61.5	61.5	76	53.9	1	3	248	0.00	30.121 
11:00	61.6	61.6	61.6	76	54.0	1	4	270	0.00	30.121 
11:05	62.1	62.1	62.1	76	54.4	0	3	270	0.00	30.121 
11:10	62.4	62.4	62.4	75	54.4	0	2	270	0.00	30.121 
11:15	62.9	62.9	62.9	74	54.5	1	4	292	0.00	30.131 
11:20	63.2	63.2	63.2	74	54.8	0	4	225	0.00	30.131 
11:25	63.9	63.9	63.9	73	55.1	1	3	225	0.00	30.131 
11:30	64.5	64.5	64.5	70	54.5	1	5	225	0.00	30.128 
11:35	65.0	65.0	65.0	69	54.6	1	3	225	0.00	30.128 
11:40	65.8	65.8	65.8	68	54.9	1	3	225	0.00	30.128 
11:45	66.3	66.3	66.3	67	55.0	1	4	225	0.00	30.127 
11:50	66.8	66.8	66.8	65	54.6	1	4	248	0.00	30.127 
11:55	67.1	67.1	67.1	65	54.9	1	4	248	0.00	30.127 
12:00	67.6	67.6	67.6	64	55.0	1	3	248	0.00	30.126 
12:05	68.3	68.3	68.3	65	56.1	0	1	248	0.00	30.126 
12:10	68.6	68.6	68.6	63	55.5	1	3	248	0.00	30.126 
12:15	68.9	68.9	68.9	62	55.3	1	3	248	0.00	30.117 
12:20	69.4	69.4	69.4	62	55.8	0	1	248	0.00	30.117 
12:25	70.1	70.1	70.1	61	56.0	0	1	248	0.00	30.117 
12:30	70.6	70.6	70.6	58	55.1	1	4	248	0.00	30.109 
12:35	70.9	70.9	70.9	57	54.9	0	3	248	0.00	30.109 
12:40	71.1	71.1	71.1	56	54.6	1	4	248	0.00	30.109 
12:45	71.5	71.5	71.5	56	55.0	1	6	90	0.00	30.102 
12:50	71.6	71.6	71.6	56	55.1	1	3	90	0.00	30.102 
12:55	71.6	71.6	71.6	55	54.6	1	4	270	0.00	30.102 
13:00	71.8	71.8	71.8	55	54.7	1	3	270	0.00	30.096 
13:05	72.3	72.3	72.3	57	56.2	1	2	315	0.00	30.096 
13:10	72.8	72.8	72.8	54	55.2	1	5	270	0.00	30.096 
13:15	73.2	73.2	73.2	54	55.5	0	2	248	0.00	30.089 
13:20	73.5	73.5	73.5	54	55.8	1	5	248	0.00	30.089 
13:25	73.9	73.9	73.9	54	56.2	0	3	248	0.00	30.089 
13:30	74.0	74.0	74.0	53	55.8	1	3	248	0.00	30.080 
13:35	73.9	73.9	73.9	50	54.1	2	5	248	0.00	30.080 
13:40	73.9	73.9	73.9	49	53.5	2	5	270	0.00	30.080 
13:45	74.2	74.2	74.2	49	53.8	1	3	270	0.00	30.074 
13:50	74.6	74.6	74.6	47	53.0	1	3	270	0.00	30.074 
13:55	74.9	74.9	74.9	48	53.9	0	2	270	0.00	30.074 
14:00	75.3	75.3	77.7	46	53.1	1	4	225	0.00	30.065 
14:05	75.6	75.6	77.9	47	53.9	0	2	225	0.00	30.065 
14:10	76.0	76.0	78.0	47	54.3	0	2	225	0.00	30.065 
14:15	75.8	75.8	77.9	45	52.9	2	4	292	0.00	30.059 
14:20	75.6	75.6	77.8	44	52.1	2	5	270	0.00	30.059 
14:25	75.6	75.6	77.8	45	52.7	1	4	292	0.00	30.059 
14:30	75.8	75.8	77.9	45	52.9	1	5	248	0.00	30.058 
14:35	75.6	75.6	77.8	44	52.1	2	6	270	0.00	30.058 
14:40	75.8	75.8	77.9	46	53.5	1	4	292	0.00	30.058 
14:45	75.8	75.8	77.9	44	52.3	1	4	248	0.00	30.056 
14:50	75.8	75.8	77.8	43	51.7	1	6	270	0.00	30.056 
14:55	76.0	76.0	78.0	45	53.1	1	3	248	0.00	30.056 
15:00	76.3	76.3	78.1	44	52.8	1	4	270	0.00	30.051 
15:05	76.5	76.5	78.1	41	51.0	2	4	270	0.00	30.051 
15:10	76.8	76.8	78.2	41	51.3	1	4	292	0.00	30.051 
15:15	77.0	77.0	78.2	39	50.1	2	4	248	0.00	30.045 
15:20	76.8	76.8	78.1	40	50.6	1	4	248	0.00	30.045 
15:25	77.2	77.2	78.4	41	51.7	0	2	270	0.00	30.045 
15:30	77.2	77.2	78.2	38	49.6	1	5	248	0.00	30.042 
15:35	77.0	77.0	78.2	39	50.1	1	5	248	0.00	30.042 
15:40	77.0	77.0	78.2	39	50.1	2	7	248	0.00	30.042 
15:45	76.8	76.8	78.1	39	49.9	1	4	270	0.00	30.042 
15:50	77.0	77.0	78.2	40	50.8	1	3	248	0.00	30.042 
15:55	77.4	77.4	78.5	42	52.5	1	3	248	0.00	30.042 
16:00	77.2	77.2	78.3	39	50.3	2	4	270	0.00	30.040 
16:05	76.7	76.7	78.1	40	50.5	1	4	270	0.00	30.040 
16:10	76.7	76.7	78.1	41	51.2	1	4	315	0.00	30.040 
16:15	76.5	76.5	78.1	42	51.7	1	4	315	0.00	30.042 
16:20	76.5	76.5	78.1	42	51.7	1	5	270	0.00	30.042 
16:25	76.7	76.7	78.1	41	51.2	1	4	270	0.00	30.042 
16:30	76.7	76.7	78.1	40	50.5	2	6	248	0.00	30.037 
16:35	76.8	76.8	78.2	41	51.3	2	7	270	0.00	30.037 
16:40	76.8	76.8	78.1	39	49.9	2	6	270	0.00	30.037 
16:45	76.8	76.8	78.1	40	50.6	2	5	270	0.00	30.033 
16:50	77.2	77.2	78.3	39	50.3	2	5	270	0.00	30.033 
16:55	77.4	77.4	78.4	39	50.5	3	6	270	0.00	30.033 
17:00	77.0	77.0	78.2	39	50.1	2	6	270	0.00	30.033 
17:05	76.8	76.8	78.2	41	51.3	1	5	248	0.00	30.033 
17:10	76.7	76.7	78.1	41	51.2	1	4	248	0.00	30.033 
17:15	76.8	76.8	78.1	40	50.6	2	5	248	0.00	30.034 
17:20	77.0	77.0	78.2	40	50.8	2	4	270	0.00	30.034 
17:25	76.8	76.8	78.1	39	49.9	2	3	270	0.00	30.034 
17:30	76.7	76.7	78.1	40	50.5	1	3	270	0.00	30.035 
17:35	76.5	76.5	78.1	41	51.0	1	5	270	0.00	30.035 
17:40	76.5	76.5	78.0	39	49.7	2	6	248	0.00	30.035 
17:45	76.5	76.5	78.0	40	50.4	2	5	270	0.00	30.038 
17:50	76.5	76.5	78.0	40	50.4	2	5	270	0.00	30.038 
17:55	76.3	76.3	77.9	39	49.5	1	4	270	0.00	30.038 
18:00	76.1	76.1	77.9	41	50.7	0	3	248	0.00	30.035 
18:05	76.0	76.0	77.9	42	51.2	0	3	225	0.00	30.035 
18:10	75.8	75.8	77.8	43	51.7	1	4	202	0.00	30.035 
18:15	75.6	75.6	77.8	43	51.5	1	3	248	0.00	30.031 
18:20	75.4	75.4	77.7	43	51.3	0	1	315	0.00	30.031 
18:25	75.3	75.3	77.7	43	51.2	0	2	315	0.00	30.031 
18:30	75.1	75.1	77.6	43	51.1	0	2	112	0.00	30.028 
18:35	74.9	74.9	74.9	43	50.9	0	2	225	0.00	30.028 
18:40	74.7	74.7	74.7	44	51.3	0	2	225	0.00	30.028 
18:45	74.4	74.4	74.4	44	51.0	0	2	225	0.00	30.030 
18:50	74.2	74.2	74.2	46	52.1	0	1	225	0.00	30.030 
18:55	73.9	73.9	73.9	46	51.8	0	1	225	0.00	30.030 
19:00	73.5	73.5	73.5	47	52.0	0	1	225	0.00	30.029 
19:05	73.0	73.0	73.0	48	52.1	0	2	225	0.00	30.029 
19:10	72.7	72.7	72.7	49	52.4	0	2	225	0.00	30.029 
19:15	72.3	72.3	72.3	49	52.1	0	1	292	0.00	30.029 
19:20	72.1	72.1	72.1	50	52.4	0	1	292	0.00	30.029 
19:25	71.8	71.8	71.8	50	52.1	0	1	292	0.00	30.029 
19:30	71.6	71.6	71.6	50	52.0	0	1	292	0.00	30.031 
19:35	71.5	71.5	71.5	51	52.4	0	1	292	0.00	30.031 
19:40	71.5	71.5	71.5	51	52.4	0	1	292	0.00	30.031 
19:45	71.3	71.3	71.3	51	52.2	0	1	292	0.00	30.038 
19:50	70.9	70.9	70.9	52	52.4	0	1	292	0.00	30.038 
19:55	70.6	70.6	70.6	53	52.6	0	1	292	0.00	30.038 
20:00	70.4	70.4	70.4	54	52.9	0	1	292	0.00	30.033 
20:05	70.1	70.1	70.1	54	52.7	0	2	292	0.00	30.033 
20:10	69.9	69.9	69.9	55	53.0	0	2	292	0.00	30.033 
20:15	69.8	69.8	69.8	56	53.4	0	1	292	0.00	30.031 
20:20	69.6	69.6	69.6	56	53.2	0	1	292	0.00	30.031 
20:25	69.4	69.4	69.4	56	53.0	0	1	292	0.00	30.031 
20:30	69.4	69.4	69.4	57	53.5	0	1	292	0.00	30.034 
20:35	69.4	69.4	69.4	57	53.5	0	1	292	0.00	30.034 
20:40	69.3	69.3	69.3	57	53.4	0	2	292	0.00	30.034 
20:45	69.3	69.3	69.3	58	53.9	0	2	248	0.00	30.037 
20:50	69.1	69.1	69.1	58	53.7	0	2	248	0.00	30.037 
20:55	68.9	68.9	68.9	59	54.0	0	1	248	0.00	30.037 
21:00	68.8	68.8	68.8	59	53.9	0	1	248	0.00	30.031 
21:05	68.4	68.4	68.4	59	53.5	0	2	248	0.00	30.031 
21:10	68.4	68.4	68.4	59	53.5	0	2	248	0.00	30.031 
21:15	68.8	68.8	68.8	59	53.9	0	3	225	0.00	30.030 
21:20	68.8	68.8	68.8	59	53.9	0	2	225	0.00	30.030 
21:25	68.8	68.8	68.8	59	53.9	0	3	225	0.00	30.030 
21:30	68.8	68.8	68.8	59	53.9	0	3	225	0.00	30.029 
21:35	68.9	68.9	68.9	59	54.0	0	4	225	0.00	30.029 
21:40	68.9	68.9	68.9	59	54.0	0	3	248	0.00	30.029 
21:45	69.1	69.1	69.1	59	54.2	1	3	248	0.00	30.030 
21:50	69.1	69.1	69.1	59	54.2	0	2	248	0.00	30.030 
21:55	69.3	69.3	69.3	59	54.3	0	2	315	0.00	30.030 
22:00	69.3	69.3	69.3	58	53.9	1	6	315	0.00	30.030 
22:05	69.3	69.3	69.3	58	53.9	1	4	248	0.00	30.030 
22:10	69.3	69.3	69.3	59	54.3	0	3	270	0.00	30.030 
22:15	69.1	69.1	69.1	59	54.2	1	3	248	0.00	30.028 
22:20	69.1	69.1	69.1	59	54.2	1	4	248	0.00	30.028 
22:25	68.9	68.9	68.9	59	54.0	0	2	45	0.00	30.028 
22:30	68.9	68.9	68.9	60	54.4	1	3	270	0.00	30.028 
22:35	68.9	68.9	68.9	59	54.0	1	6	248	0.00	30.028 
22:40	68.9	68.9	68.9	60	54.4	0	3	225	0.00	30.028 
22:45	68.8	68.8	68.8	60	54.3	0	4	248	0.00	30.031 
22:50	68.8	68.8	68.8	60	54.3	0	4	225	0.00	30.031 
22:55	68.6	68.6	68.6	60	54.1	1	3	292	0.00	30.031 
23:00	68.4	68.4	68.4	61	54.4	1	3	292	0.00	30.043 
23:05	68.3	68.3	68.3	61	54.3	0	1	292	0.00	30.043 
23:10	68.1	68.1	68.1	62	54.6	0	1	292	0.00	30.043 
23:15	67.9	67.9	67.9	63	54.8	0	1	248	0.00	30.038 
23:20	67.8	67.8	67.8	63	54.7	0	1	225	0.00	30.038 
23:25	67.6	67.6	67.6	63	54.5	0	1	225	0.00	30.038 
23:30	67.4	67.4	67.4	64	54.8	0	1	225	0.00	30.040 
23:35	67.4	67.4	67.4	64	54.8	0	1	225	0.00	30.040 
23:40	67.4	67.4	67.4	64	54.8	0	1	225	0.00	30.040 
23:45	67.3	67.3	67.3	65	55.1	0	2	225	0.00	30.044 
23:50	67.3	67.3	67.3	64	54.7	0	1	225	0.00	30.044 
23:55	67.3	67.3	67.3	65	55.1	0	1	225	0.00	30.044 

CoCoRaHS
IN-AL-39
A2 Web Hosting
Creative Commons License
GoDaddy
search engine by freefind advanced

loaded 2018-11-15 15:40:37 • last modified 2010-11-18 10:43:29
Privacy PolicyDisclaimer
• wx.awcolley.com is powered by PmWiki v.2002016 •
• all content (unless otherwise noted) © 2018 A W Colley